Time;durP1;ratioP1;P1;durP2;ratioP2;P2;SDS_P1;SDS_P2;PMS_P1;PMS_P2;Temp;Humidity;BMP_temperature;BMP_pressure;BME280_temperature;BME280_humidity;BME280_pressure;Samples;Min_cycle;Max_cycle;Signal;HPM_P1;HPM_P2
2020/12/10 00:02:11;;;;;;;5.03;2.25;;;;;;;;;;5067008;28;20490;-63
2020/12/10 00:04:37;;;;;;;6.20;2.40;;;;;;;;;;5051528;28;20509;-63
2020/12/10 00:07:03;;;;;;;6.22;2.88;;;;;;;;;;5051468;28;20029;-63
2020/12/10 00:09:29;;;;;;;5.95;2.40;;;;;;;;;;5051646;28;20029;-63
2020/12/10 00:11:55;;;;;;;6.95;2.80;;;;;;;;;;5051381;28;20442;-63
2020/12/10 00:14:21;;;;;;;5.28;2.47;;;;;;;;;;5051381;28;20061;-63
2020/12/10 00:16:49;;;;;;;7.72;2.90;;;;;;;;;;5051388;28;20033;-63
2020/12/10 00:19:15;;;;;;;7.53;3.05;;;;;;;;;;5054064;28;20051;-63
2020/12/10 00:21:41;;;;;;;4.63;2.47;;;;;;;;;;5054713;28;20498;-64
2020/12/10 00:24:07;;;;;;;7.05;2.38;;;;;;;;;;5054830;28;20040;-62
2020/12/10 00:26:33;;;;;;;8.95;1.98;;;;;;;;;;5054859;28;20024;-63
2020/12/10 00:28:59;;;;;;;5.30;1.92;;;;;;;;;;5054900;28;20029;-63
2020/12/10 00:31:26;;;;;;;5.97;1.83;;;;;;;;;;5054804;28;20108;-63
2020/12/10 00:33:52;;;;;;;4.47;1.63;;;;;;;;;;5054681;28;20029;-63
2020/12/10 00:36:18;;;;;;;7.70;1.83;;;;;;;;;;5054585;28;20037;-63
2020/12/10 00:38:44;;;;;;;5.35;1.83;;;;;;;;;;5054535;28;20044;-64
2020/12/10 00:41:10;;;;;;;4.72;1.88;;;;;;;;;;5054617;28;20037;-63
2020/12/10 00:43:36;;;;;;;7.47;3.20;;;;;;;;;;5054491;28;20126;-63
2020/12/10 00:46:06;;;;;;;7.43;2.47;;;;;;;;;;5054602;28;20036;-64
2020/12/10 00:48:32;;;;;;;7.28;3.17;;;;;;;;;;5054256;28;20025;-64
2020/12/10 00:50:59;;;;;;;9.45;2.83;;;;;;;;;;5054170;28;20125;-64
2020/12/10 00:53:25;;;;;;;8.15;2.92;;;;;;;;;;5054045;28;20037;-64
2020/12/10 00:55:54;;;;;;;6.18;1.77;;;;;;;;;;5054256;28;20029;-63
2020/12/10 00:58:20;;;;;;;8.65;2.20;;;;;;;;;;5054185;28;20377;-64
2020/12/10 01:00:46;;;;;;;7.38;2.00;;;;;;;;;;5069510;28;20033;-64
2020/12/10 01:03:12;;;;;;;5.63;1.52;;;;;;;;;;5054083;28;20509;-64
2020/12/10 01:05:38;;;;;;;5.05;1.48;;;;;;;;;;5053978;28;20381;-64
2020/12/10 01:08:04;;;;;;;5.78;1.60;;;;;;;;;;5054087;28;20033;-64
2020/12/10 01:10:30;;;;;;;3.20;1.45;;;;;;;;;;5054125;28;20389;-65
2020/12/10 01:12:57;;;;;;;4.88;2.60;;;;;;;;;;5054042;28;20056;-64
2020/12/10 01:15:23;;;;;;;4.97;1.88;;;;;;;;;;5053989;28;20091;-64
2020/12/10 01:17:49;;;;;;;5.00;1.70;;;;;;;;;;5053662;28;20025;-63
2020/12/10 01:20:15;;;;;;;3.65;1.70;;;;;;;;;;5054036;28;20047;-63
2020/12/10 01:22:41;;;;;;;5.88;1.90;;;;;;;;;;5055786;28;20492;-63
2020/12/10 01:25:07;;;;;;;7.80;1.60;;;;;;;;;;5055123;28;20059;-63
2020/12/10 01:27:34;;;;;;;6.93;2.50;;;;;;;;;;5053703;28;20029;-63
2020/12/10 01:30:00;;;;;;;4.28;1.35;;;;;;;;;;5068256;28;20024;-63
2020/12/10 01:32:26;;;;;;;3.13;1.60;;;;;;;;;;5053657;28;20528;-64
2020/12/10 01:34:53;;;;;;;5.30;1.70;;;;;;;;;;5053600;28;20078;-63
2020/12/10 01:37:20;;;;;;;7.10;2.47;;;;;;;;;;5053645;28;20051;-64
2020/12/10 01:39:46;;;;;;;8.00;1.90;;;;;;;;;;5053439;28;20059;-63
2020/12/10 01:42:12;;;;;;;5.43;1.63;;;;;;;;;;5053423;28;20035;-64
2020/12/10 01:44:39;;;;;;;3.88;1.98;;;;;;;;;;5068768;28;20090;-63
2020/12/10 01:47:08;;;;;;;5.57;1.55;;;;;;;;;;5053129;28;20067;-63
2020/12/10 01:49:35;;;;;;;3.75;1.83;;;;;;;;;;5052628;28;20024;-63
2020/12/10 01:52:02;;;;;;;5.20;1.52;;;;;;;;;;5053130;28;20476;-64
2020/12/10 01:54:28;;;;;;;3.85;1.80;;;;;;;;;;5053369;28;20378;-64
2020/12/10 01:56:55;;;;;;;4.10;1.58;;;;;;;;;;5053302;28;20017;-63
2020/12/10 01:59:22;;;;;;;4.93;1.45;;;;;;;;;;5053093;28;20021;-64
2020/12/10 02:01:48;;;;;;;3.88;1.52;;;;;;;;;;5053233;28;20037;-64
2020/12/10 02:04:29;;;;;;;4.18;1.40;;;;;;;;;;5053103;28;20373;-63
2020/12/10 02:06:56;;;;;;;2.97;1.60;;;;;;;;;;5052961;28;20037;-65
2020/12/10 02:09:22;;;;;;;4.38;1.67;;;;;;;;;;5068170;28;20014;-63
2020/12/10 02:11:48;;;;;;;4.70;2.00;;;;;;;;;;5068215;28;20041;-63
2020/12/10 02:14:14;;;;;;;6.70;2.10;;;;;;;;;;5052786;28;20021;-63
2020/12/10 02:16:40;;;;;;;4.63;1.73;;;;;;;;;;5068077;28;20063;-63
2020/12/10 02:19:07;;;;;;;3.38;1.67;;;;;;;;;;5052733;28;20028;-63
2020/12/10 02:21:33;;;;;;;4.25;1.60;;;;;;;;;;5052407;28;20072;-63
2020/12/10 02:23:59;;;;;;;3.53;1.45;;;;;;;;;;5052467;28;20365;-63
2020/12/10 02:26:26;;;;;;;4.07;1.80;;;;;;;;;;5052588;28;20029;-63
2020/12/10 02:28:56;;;;;;;4.32;1.85;;;;;;;;;;5052359;28;20033;-62
2020/12/10 02:31:23;;;;;;;2.83;1.30;;;;;;;;;;5052366;28;20384;-63
2020/12/10 02:33:50;;;;;;;6.57;1.42;;;;;;;;;;5052419;28;20055;-62
2020/12/10 02:36:16;;;;;;;4.25;1.50;;;;;;;;;;5052336;28;20055;-62
2020/12/10 02:38:42;;;;;;;2.85;1.40;;;;;;;;;;5052219;28;20090;-64
2020/12/10 02:41:08;;;;;;;3.38;1.70;;;;;;;;;;5052376;28;20086;-63
2020/12/10 02:43:34;;;;;;;3.65;1.42;;;;;;;;;;5052102;28;20043;-63
2020/12/10 02:46:01;;;;;;;3.35;1.45;;;;;;;;;;5052266;28;20029;-63
2020/12/10 02:48:27;;;;;;;3.60;1.10;;;;;;;;;;5052189;28;20021;-63
2020/12/10 02:50:53;;;;;;;3.03;1.20;;;;;;;;;;5052021;28;20047;-62
2020/12/10 02:53:19;;;;;;;4.13;1.63;;;;;;;;;;5052947;28;20512;-63
2020/12/10 02:55:45;;;;;;;4.22;1.05;;;;;;;;;;5053444;28;20148;-63
2020/12/10 02:58:11;;;;;;;1.63;0.80;;;;;;;;;;5052269;28;20027;-63
2020/12/10 03:00:37;;;;;;;4.20;1.00;;;;;;;;;;5052022;28;20557;-63
2020/12/10 03:03:03;;;;;;;1.85;1.10;;;;;;;;;;5052084;28;20029;-63
2020/12/10 03:05:29;;;;;;;3.78;1.98;;;;;;;;;;5051910;28;20116;-62
2020/12/10 03:07:55;;;;;;;5.20;1.00;;;;;;;;;;5067451;28;20025;-63
2020/12/10 03:10:21;;;;;;;2.45;1.20;;;;;;;;;;5052088;28;20024;-63
2020/12/10 03:12:47;;;;;;;2.50;1.00;;;;;;;;;;5067110;28;20068;-63
2020/12/10 03:15:13;;;;;;;1.52;0.80;;;;;;;;;;5051997;28;20033;-63
2020/12/10 03:17:39;;;;;;;3.33;1.35;;;;;;;;;;5051809;28;20546;-63
2020/12/10 03:20:06;;;;;;;2.05;1.00;;;;;;;;;;5051844;28;20025;-64
2020/12/10 03:22:32;;;;;;;2.40;0.93;;;;;;;;;;5051854;28;20056;-64
2020/12/10 03:24:58;;;;;;;1.60;0.80;;;;;;;;;;5051637;28;20041;-64
2020/12/10 03:27:24;;;;;;;1.95;0.90;;;;;;;;;;5051751;28;20036;-64
2020/12/10 03:29:51;;;;;;;3.17;0.80;;;;;;;;;;5051791;28;20021;-64
2020/12/10 03:32:17;;;;;;;1.35;0.63;;;;;;;;;;5051694;28;20036;-64
2020/12/10 03:34:43;;;;;;;2.13;0.70;;;;;;;;;;5067071;28;20473;-65
2020/12/10 03:37:09;;;;;;;1.75;0.60;;;;;;;;;;5051772;28;20025;-64
2020/12/10 03:39:35;;;;;;;1.42;0.60;;;;;;;;;;5051694;28;20492;-64
2020/12/10 03:42:02;;;;;;;3.15;0.73;;;;;;;;;;5051668;28;20026;-64
2020/12/10 03:44:28;;;;;;;2.00;0.80;;;;;;;;;;5051513;28;20051;-63
2020/12/10 03:46:54;;;;;;;1.63;0.80;;;;;;;;;;5051759;28;20028;-63
2020/12/10 03:49:21;;;;;;;1.67;0.60;;;;;;;;;;5051518;28;20116;-63
2020/12/10 03:51:47;;;;;;;1.67;0.70;;;;;;;;;;5051370;28;20069;-64
2020/12/10 03:54:13;;;;;;;2.10;0.55;;;;;;;;;;5054407;28;20087;-64
2020/12/10 03:56:39;;;;;;;1.33;0.50;;;;;;;;;;5055272;28;20029;-64
2020/12/10 03:59:07;;;;;;;1.25;0.60;;;;;;;;;;5055413;28;20025;-64
2020/12/10 04:01:33;;;;;;;1.10;0.50;;;;;;;;;;5055344;28;20029;-64
2020/12/10 04:04:00;;;;;;;1.05;0.50;;;;;;;;;;5070602;28;20052;-64
2020/12/10 04:06:26;;;;;;;1.35;0.50;;;;;;;;;;5055153;28;20055;-62
2020/12/10 04:08:53;;;;;;;1.80;0.50;;;;;;;;;;5055254;28;20036;-64
2020/12/10 04:11:19;;;;;;;0.82;0.43;;;;;;;;;;5054997;28;20025;-62
2020/12/10 04:13:46;;;;;;;2.03;0.50;;;;;;;;;;5055058;28;20391;-63
2020/12/10 04:16:14;;;;;;;1.25;0.52;;;;;;;;;;5055263;28;20488;-63
2020/12/10 04:18:41;;;;;;;1.23;0.40;;;;;;;;;;5055022;28;20557;-64
2020/12/10 04:21:08;;;;;;;1.33;0.60;;;;;;;;;;5055103;28;20029;-64
2020/12/10 04:23:34;;;;;;;0.85;0.45;;;;;;;;;;5055482;28;20017;-65
2020/12/10 04:26:00;;;;;;;1.38;0.55;;;;;;;;;;5056917;28;20033;-64
2020/12/10 04:28:27;;;;;;;1.08;0.55;;;;;;;;;;5070603;28;20494;-64
2020/12/10 04:30:53;;;;;;;1.20;0.52;;;;;;;;;;5054745;28;20059;-64
2020/12/10 04:33:21;;;;;;;2.83;0.70;;;;;;;;;;5054639;28;20033;-65
2020/12/10 04:35:47;;;;;;;0.63;0.40;;;;;;;;;;5054727;28;20099;-64
2020/12/10 04:38:16;;;;;;;0.95;0.50;;;;;;;;;;5054555;28;20021;-64
2020/12/10 04:40:42;;;;;;;;;;;;;;;;;;5054864;28;20037;-64
2020/12/10 04:43:10;;;;;;;1.27;0.60;;;;;;;;;;5054545;28;19904;-64
2020/12/10 04:45:36;;;;;;;2.25;0.45;;;;;;;;;;5054786;28;20025;-64
2020/12/10 04:48:02;;;;;;;0.88;0.40;;;;;;;;;;5054451;28;20029;-63
2020/12/10 04:50:31;;;;;;;0.60;0.40;;;;;;;;;;5054471;28;20431;-64
2020/12/10 04:52:58;;;;;;;1.55;0.60;;;;;;;;;;5054500;28;20362;-63
2020/12/10 04:55:26;;;;;;;0.90;0.43;;;;;;;;;;5054259;28;20492;-63
2020/12/10 04:57:53;;;;;;;0.90;0.50;;;;;;;;;;5054270;28;20067;-63
2020/12/10 05:00:19;;;;;;;2.30;0.40;;;;;;;;;;5054301;28;20082;-63
2020/12/10 05:02:45;;;;;;;1.35;0.50;;;;;;;;;;5054019;28;20029;-64
2020/12/10 05:05:31;;;;;;;0.70;0.40;;;;;;;;;;5053023;28;20025;-64
2020/12/10 05:07:58;;;;;;;1.17;0.40;;;;;;;;;;5054266;28;20066;-64
2020/12/10 05:10:25;;;;;;;0.80;0.35;;;;;;;;;;5054035;28;20029;-63
2020/12/10 05:12:51;;;;;;;2.15;0.55;;;;;;;;;;5053887;28;20069;-64
2020/12/10 05:15:19;;;;;;;1.10;0.45;;;;;;;;;;5054002;28;20100;-64
2020/12/10 05:17:45;;;;;;;3.33;1.77;;;;;;;;;;5053806;28;20025;-64
2020/12/10 05:20:11;;;;;;;6.22;3.38;;;;;;;;;;5053833;28;20025;-63
2020/12/10 05:22:44;;;;;;;4.60;2.47;;;;;;;;;;5053853;28;20025;-65
2020/12/10 05:25:10;;;;;;;3.25;1.70;;;;;;;;;;5053687;28;20096;-64
2020/12/10 05:27:36;;;;;;;3.45;1.70;;;;;;;;;;5053618;28;20032;-64
2020/12/10 05:30:03;;;;;;;3.70;1.60;;;;;;;;;;5053552;28;20033;-64
2020/12/10 05:32:32;;;;;;;4.38;2.10;;;;;;;;;;5053619;28;20115;-64
2020/12/10 05:35:11;;;;;;;4.20;1.55;;;;;;;;;;5053303;28;20024;-64
2020/12/10 05:37:37;;;;;;;2.75;1.10;;;;;;;;;;5052404;28;20040;-64
2020/12/10 05:40:03;;;;;;;2.22;0.80;;;;;;;;;;5053322;28;20033;-69
2020/12/10 05:42:40;;;;;;;2.30;0.90;;;;;;;;;;5053317;28;20048;-68
2020/12/10 05:45:10;;;;;;;1.45;0.60;;;;;;;;;;5053194;28;20051;-68
2020/12/10 05:47:39;;;;;;;1.67;0.75;;;;;;;;;;5068526;28;20366;-68
2020/12/10 05:50:05;;;;;;;2.58;0.82;;;;;;;;;;5051837;28;20109;-62
2020/12/10 05:52:34;;;;;;;1.35;0.60;;;;;;;;;;5050165;28;20037;-62
2020/12/10 05:55:00;;;;;;;;;;;;;;;;;;5053111;28;20036;-63
2020/12/10 05:57:26;;;;;;;2.33;0.40;;;;;;;;;;5056618;28;19901;-65
2020/12/10 05:59:52;;;;;;;0.82;0.30;;;;;;;;;;5051964;28;20032;-66
2020/12/10 06:02:19;;;;;;;1.38;0.50;;;;;;;;;;5051305;28;20086;-64
2020/12/10 06:04:46;;;;;;;0.82;0.30;;;;;;;;;;5051088;28;20056;-66
2020/12/10 06:07:14;;;;;;;1.33;0.65;;;;;;;;;;5051260;28;20032;-66
2020/12/10 06:09:40;;;;;;;2.88;1.10;;;;;;;;;;5049856;28;20049;-66
2020/12/10 06:12:07;;;;;;;2.92;1.42;;;;;;;;;;5050827;28;20051;-65
2020/12/10 06:14:49;;;;;;;2.35;1.00;;;;;;;;;;5052204;28;20032;-66
2020/12/10 06:17:15;;;;;;;2.33;0.73;;;;;;;;;;5052558;28;20024;-66
2020/12/10 06:19:43;;;;;;;1.38;0.65;;;;;;;;;;5052867;28;20025;-65
2020/12/10 06:22:29;;;;;;;1.13;0.60;;;;;;;;;;5051404;28;20115;-64
2020/12/10 06:24:59;;;;;;;0.98;0.43;;;;;;;;;;5052688;28;20051;-65
2020/12/10 06:27:26;;;;;;;1.67;0.60;;;;;;;;;;5053954;28;20112;-64
2020/12/10 06:30:10;;;;;;;1.13;0.50;;;;;;;;;;5052679;28;20021;-63
2020/12/10 06:32:43;;;;;;;1.60;0.70;;;;;;;;;;5052663;28;20044;-64
2020/12/10 06:35:28;;;;;;;3.60;1.45;;;;;;;;;;5049344;28;20418;-62
2020/12/10 06:37:55;;;;;;;3.15;1.70;;;;;;;;;;5051802;28;20146;-66
2020/12/10 06:40:28;;;;;;;2.35;1.60;;;;;;;;;;5051064;28;20032;-62
2020/12/10 06:42:55;;;;;;;2.90;1.52;;;;;;;;;;5050861;28;20029;-64
2020/12/10 06:45:25;;;;;;;2.60;1.30;;;;;;;;;;5051042;28;20033;-63
2020/12/10 06:47:51;;;;;;;2.70;1.27;;;;;;;;;;5051793;28;20123;-62
2020/12/10 06:50:21;;;;;;;2.45;1.17;;;;;;;;;;5050774;28;20802;-61
2020/12/10 06:53:06;;;;;;;2.28;1.00;;;;;;;;;;5051385;28;20099;-61
2020/12/10 06:55:32;;;;;;;1.83;0.90;;;;;;;;;;5051796;28;20032;-61
2020/12/10 06:58:04;;;;;;;2.28;1.30;;;;;;;;;;5051714;28;20027;-61
2020/12/10 07:00:48;;;;;;;3.50;2.00;;;;;;;;;;5051779;28;20043;-62
2020/12/10 07:03:18;;;;;;;2.50;1.63;;;;;;;;;;5052089;28;20045;-64
2020/12/10 07:05:44;;;;;;;4.55;2.13;;;;;;;;;;5052057;28;20074;-64
2020/12/10 07:08:11;;;;;;;2.20;1.27;;;;;;;;;;5051628;28;20100;-62
2020/12/10 07:10:42;;;;;;;2.72;1.63;;;;;;;;;;5051602;28;20033;-62
2020/12/10 07:13:08;;;;;;;3.13;1.50;;;;;;;;;;5051389;28;20044;-62
2020/12/10 07:15:34;;;;;;;5.60;3.05;;;;;;;;;;5051513;28;20025;-63
2020/12/10 07:18:04;;;;;;;3.97;1.88;;;;;;;;;;5051299;28;20033;-62
2020/12/10 07:20:31;;;;;;;2.38;1.38;;;;;;;;;;5051933;28;20488;-61
2020/12/10 07:22:57;;;;;;;2.88;1.60;;;;;;;;;;5051544;28;20028;-61
2020/12/10 07:25:24;;;;;;;3.50;1.77;;;;;;;;;;5050072;28;20057;-61
2020/12/10 07:27:50;;;;;;;3.10;1.38;;;;;;;;;;5052824;28;20021;-60
2020/12/10 07:30:23;;;;;;;3.20;1.70;;;;;;;;;;5055976;28;20572;-61
2020/12/10 07:32:52;;;;;;;2.40;1.30;;;;;;;;;;5055454;28;20040;-61
2020/12/10 07:35:26;;;;;;;2.38;1.30;;;;;;;;;;5055269;28;20021;-62
2020/12/10 07:37:52;;;;;;;2.95;1.40;;;;;;;;;;5053923;28;20112;-62
2020/12/10 07:40:19;;;;;;;2.95;1.27;;;;;;;;;;5055242;28;20036;-60
2020/12/10 07:42:45;;;;;;;3.00;1.40;;;;;;;;;;5055234;28;20025;-61
2020/12/10 07:45:12;;;;;;;2.25;1.00;;;;;;;;;;5055234;28;20028;-62
2020/12/10 07:47:38;;;;;;;2.45;0.88;;;;;;;;;;5055176;28;20108;-61
2020/12/10 07:50:29;;;;;;;2.88;1.40;;;;;;;;;;5055130;28;20017;-60
2020/12/10 07:53:07;;;;;;;3.17;1.15;;;;;;;;;;5054821;28;20530;-61
2020/12/10 07:55:35;;;;;;;2.15;1.23;;;;;;;;;;5054836;28;20039;-61
2020/12/10 07:58:04;;;;;;;2.58;1.00;;;;;;;;;;5054889;28;20180;-61
2020/12/10 08:00:30;;;;;;;2.20;0.70;;;;;;;;;;5055305;28;20021;-60
2020/12/10 08:03:13;;;;;;;1.63;0.70;;;;;;;;;;5054884;28;20021;-62
2020/12/10 08:05:41;;;;;;;2.53;0.77;;;;;;;;;;5054866;28;20590;-61
2020/12/10 08:08:07;;;;;;;1.80;0.77;;;;;;;;;;5054989;28;20025;-60
2020/12/10 08:10:36;;;;;;;1.50;0.70;;;;;;;;;;5053708;28;20643;-61
2020/12/10 08:13:11;;;;;;;1.25;0.75;;;;;;;;;;5054880;28;20230;-61
2020/12/10 08:15:38;;;;;;;2.08;0.80;;;;;;;;;;5054644;28;20068;-61
2020/12/10 08:18:13;;;;;;;2.08;0.60;;;;;;;;;;5053306;28;20036;-61
2020/12/10 08:20:43;;;;;;;3.45;0.90;;;;;;;;;;5036909;28;20100;-60
2020/12/10 08:23:09;;;;;;;1.60;0.60;;;;;;;;;;5054509;28;20021;-60
2020/12/10 08:25:38;;;;;;;1.17;0.50;;;;;;;;;;5054376;28;20021;-60
2020/12/10 08:28:05;;;;;;;1.35;0.50;;;;;;;;;;5053430;28;20066;-60
2020/12/10 08:30:31;;;;;;;3.60;0.65;;;;;;;;;;5054251;28;20059;-61
2020/12/10 08:32:59;;;;;;;1.20;0.63;;;;;;;;;;5054211;28;20040;-62
2020/12/10 08:35:25;;;;;;;2.70;0.55;;;;;;;;;;5054059;28;20055;-61
2020/12/10 08:37:51;;;;;;;3.53;0.43;;;;;;;;;;5054255;28;20449;-56
2020/12/10 08:40:26;;;;;;;2.28;0.85;;;;;;;;;;5044662;28;20037;-58
2020/12/10 08:42:53;;;;;;;3.03;1.38;;;;;;;;;;5049939;28;20032;-56
2020/12/10 08:45:32;;;;;;;2.97;1.50;;;;;;;;;;5051824;28;20080;-58
2020/12/10 08:48:00;;;;;;;3.25;1.42;;;;;;;;;;5054305;28;20028;-57
2020/12/10 08:50:27;;;;;;;5.85;2.83;;;;;;;;;;5053097;28;20444;-56
2020/12/10 08:52:59;;;;;;;4.93;2.53;;;;;;;;;;5054149;28;20072;-58
2020/12/10 08:55:29;;;;;;;4.70;1.85;;;;;;;;;;5054185;28;20087;-58
2020/12/10 08:57:59;;;;;;;3.78;2.05;;;;;;;;;;5053895;28;20067;-56
2020/12/10 09:00:25;;;;;;;5.75;2.25;;;;;;;;;;5051894;28;20119;-56
2020/12/10 09:02:51;;;;;;;5.32;1.75;;;;;;;;;;5051631;28;20025;-56
2020/12/10 09:05:17;;;;;;;3.13;1.60;;;;;;;;;;5051919;28;20029;-57
2020/12/10 09:07:44;;;;;;;3.88;2.30;;;;;;;;;;5052284;28;20422;-57
2020/12/10 09:10:10;;;;;;;5.32;2.10;;;;;;;;;;5052663;28;20060;-56
2020/12/10 09:12:37;;;;;;;4.20;2.20;;;;;;;;;;5053274;28;20397;-57
2020/12/10 09:15:03;;;;;;;5.28;2.72;;;;;;;;;;5053168;28;20101;-57
2020/12/10 09:17:30;;;;;;;4.95;2.30;;;;;;;;;;5054001;28;20025;-57
2020/12/10 09:19:57;;;;;;;3.90;2.35;;;;;;;;;;5053837;28;20033;-57
2020/12/10 09:22:23;;;;;;;4.40;1.65;;;;;;;;;;5053912;28;20075;-57
2020/12/10 09:24:55;;;;;;;6.15;2.83;;;;;;;;;;5053724;28;20469;-56
2020/12/10 09:27:21;;;;;;;6.57;3.17;;;;;;;;;;5053878;28;20044;-57
2020/12/10 09:29:48;;;;;;;7.40;3.40;;;;;;;;;;5053851;28;20547;-57
2020/12/10 09:32:15;;;;;;;6.70;3.70;;;;;;;;;;5052579;28;20032;-57
2020/12/10 09:34:41;;;;;;;6.35;2.83;;;;;;;;;;5053515;28;20098;-56
2020/12/10 09:37:07;;;;;;;7.72;2.80;;;;;;;;;;5035773;28;20064;-56
2020/12/10 09:39:35;;;;;;;6.45;2.67;;;;;;;;;;5053303;28;20095;-57
2020/12/10 09:42:02;;;;;;;4.03;1.98;;;;;;;;;;5051903;28;20080;-57
2020/12/10 09:44:29;;;;;;;4.43;1.48;;;;;;;;;;5053012;28;20025;-56
2020/12/10 09:46:55;;;;;;;4.22;1.65;;;;;;;;;;5053294;28;20150;-58
2020/12/10 09:49:21;;;;;;;6.07;2.17;;;;;;;;;;5053354;28;20039;-57
2020/12/10 09:51:55;;;;;;;5.72;2.03;;;;;;;;;;5052471;28;20104;-57
2020/12/10 09:59:27;;;;;;;4.72;2.45;;;;;;;;;;5053197;28;20094;-57
2020/12/10 10:01:53;;;;;;;5.38;2.20;;;;;;;;;;5053190;28;20029;-57
2020/12/10 10:04:19;;;;;;;4.45;2.53;;;;;;;;;;5053094;28;20497;-56
2020/12/10 10:06:47;;;;;;;13.02;4.55;;;;;;;;;;5053017;28;20087;-59
2020/12/10 10:09:37;;;;;;;13.45;5.82;;;;;;;;;;5052915;28;20029;-57
2020/12/10 10:12:30;;;;;;;15.85;8.85;;;;;;;;;;5051328;28;20032;-57
2020/12/10 10:15:17;;;;;;;15.85;7.25;;;;;;;;;;5052954;28;20060;-57
2020/12/10 10:17:43;;;;;;;20.15;5.93;;;;;;;;;;5052692;28;20036;-57
2020/12/10 10:20:10;;;;;;;9.15;3.97;;;;;;;;;;5052816;28;20112;-57
2020/12/10 10:22:40;;;;;;;25.25;8.20;;;;;;;;;;5051461;28;20088;-57
2020/12/10 10:25:07;;;;;;;14.10;6.72;;;;;;;;;;5051339;28;20032;-56
2020/12/10 10:27:33;;;;;;;7.93;3.95;;;;;;;;;;5052429;28;20476;-57
2020/12/10 10:29:59;;;;;;;10.57;3.80;;;;;;;;;;5052609;28;20382;-57
2020/12/10 10:32:25;;;;;;;6.80;2.90;;;;;;;;;;5052365;28;20028;-57
2020/12/10 10:34:51;;;;;;;7.22;2.95;;;;;;;;;;5052435;28;20036;-57
2020/12/10 10:37:17;;;;;;;5.93;3.20;;;;;;;;;;5050957;28;20358;-57
2020/12/10 10:39:44;;;;;;;4.55;2.30;;;;;;;;;;5052065;28;20068;-58
2020/12/10 10:42:10;;;;;;;5.65;2.60;;;;;;;;;;5051281;28;20032;-56
2020/12/10 10:44:36;;;;;;;7.43;3.70;;;;;;;;;;5052280;28;20025;-56
2020/12/10 10:47:02;;;;;;;7.63;3.13;;;;;;;;;;5051072;28;20394;-56
2020/12/10 10:49:28;;;;;;;7.82;2.95;;;;;;;;;;5052207;28;20104;-56
2020/12/10 10:51:54;;;;;;;6.55;2.60;;;;;;;;;;5050751;28;20021;-56
2020/12/10 10:54:38;;;;;;;5.95;2.45;;;;;;;;;;5052105;28;20032;-56
2020/12/10 10:57:04;;;;;;;8.63;3.72;;;;;;;;;;5051004;28;20025;-57
2020/12/10 10:59:30;;;;;;;8.23;3.90;;;;;;;;;;5051025;28;20035;-56
2020/12/10 11:01:56;;;;;;;5.32;2.80;;;;;;;;;;5051512;28;20453;-57
2020/12/10 11:04:22;;;;;;;8.63;2.83;;;;;;;;;;5051609;28;20041;-57
2020/12/10 11:06:51;;;;;;;4.43;2.47;;;;;;;;;;5052120;28;20091;-58
2020/12/10 11:09:18;;;;;;;4.85;2.65;;;;;;;;;;5050773;28;20032;-57
2020/12/10 11:11:44;;;;;;;6.72;2.90;;;;;;;;;;5051921;28;20028;-57
2020/12/10 11:14:10;;;;;;;9.25;3.25;;;;;;;;;;5052128;28;20043;-57
2020/12/10 11:16:36;;;;;;;5.70;2.88;;;;;;;;;;5052163;28;20493;-58
2020/12/10 11:19:03;;;;;;;9.65;3.42;;;;;;;;;;5052167;28;20485;-57
2020/12/10 11:21:29;;;;;;;4.95;2.45;;;;;;;;;;5050587;28;20132;-56
2020/12/10 11:23:55;;;;;;;6.50;2.17;;;;;;;;;;5051811;28;20055;-56
2020/12/10 11:26:22;;;;;;;6.03;1.70;;;;;;;;;;5051764;28;20114;-58
2020/12/10 11:28:48;;;;;;;6.00;2.20;;;;;;;;;;5051803;28;20033;-58
2020/12/10 11:31:14;;;;;;;3.42;1.42;;;;;;;;;;5050477;28;20028;-57
2020/12/10 11:33:40;;;;;;;3.67;1.50;;;;;;;;;;5051860;28;20136;-57
2020/12/10 11:36:06;;;;;;;4.22;1.20;;;;;;;;;;5051991;28;20041;-58
2020/12/10 11:38:32;;;;;;;5.53;1.25;;;;;;;;;;5051441;28;20017;-58
2020/12/10 11:40:58;;;;;;;11.48;3.42;;;;;;;;;;5051490;28;20048;-57
2020/12/10 11:43:26;;;;;;;9.07;3.08;;;;;;;;;;5051562;28;20068;-58
2020/12/10 11:45:52;;;;;;;7.53;2.58;;;;;;;;;;5051831;28;20037;-57
2020/12/10 11:48:20;;;;;;;9.77;3.15;;;;;;;;;;5051534;28;20017;-57
2020/12/10 11:50:46;;;;;;;9.55;3.17;;;;;;;;;;5051694;28;20093;-57
2020/12/10 11:53:21;;;;;;;10.23;3.63;;;;;;;;;;5051619;28;20041;-57
2020/12/10 11:55:47;;;;;;;6.93;2.33;;;;;;;;;;5051730;28;20163;-57
2020/12/10 11:58:14;;;;;;;9.20;2.40;;;;;;;;;;5051591;28;20059;-56
2020/12/10 12:01:00;;;;;;;14.15;6.93;;;;;;;;;;5052056;28;20021;-57
2020/12/10 12:03:27;;;;;;;15.13;7.63;;;;;;;;;;5051394;28;20028;-57
2020/12/10 12:05:53;;;;;;;14.93;7.10;;;;;;;;;;5051679;28;20029;-57
2020/12/10 12:08:24;;;;;;;11.23;6.20;;;;;;;;;;5051488;28;20028;-56
2020/12/10 12:10:55;;;;;;;8.15;4.10;;;;;;;;;;5051591;28;20029;-58
2020/12/10 12:13:21;;;;;;;9.55;4.43;;;;;;;;;;5051108;28;20539;-57
2020/12/10 12:15:47;;;;;;;8.25;4.90;;;;;;;;;;5055038;28;20013;-57
2020/12/10 12:18:18;;;;;;;10.48;4.85;;;;;;;;;;5055214;28;20047;-57
2020/12/10 12:21:02;;;;;;;11.02;3.67;;;;;;;;;;5054006;28;20031;-58
2020/12/10 12:23:37;;;;;;;6.28;1.98;;;;;;;;;;5054816;28;20060;-56
2020/12/10 12:26:03;;;;;;;5.25;1.85;;;;;;;;;;5054114;28;20385;-56
2020/12/10 12:28:30;;;;;;;4.97;1.63;;;;;;;;;;5054980;28;20096;-58
2020/12/10 12:30:56;;;;;;;6.07;1.67;;;;;;;;;;5055015;28;20029;-57
2020/12/10 12:33:22;;;;;;;4.65;1.88;;;;;;;;;;5054724;28;20037;-57
2020/12/10 12:35:49;;;;;;;4.03;2.17;;;;;;;;;;5055044;28;20053;-56
2020/12/10 12:38:17;;;;;;;6.35;3.67;;;;;;;;;;5054580;28;20025;-57
2020/12/10 12:40:43;;;;;;;9.55;5.70;;;;;;;;;;5054747;28;20041;-58
2020/12/10 12:43:10;;;;;;;7.25;4.43;;;;;;;;;;5054817;28;20035;-59
2020/12/10 12:45:36;;;;;;;8.75;3.25;;;;;;;;;;5053792;28;20163;-57
2020/12/10 12:48:03;;;;;;;9.85;3.88;;;;;;;;;;5054680;28;20381;-57
2020/12/10 12:50:30;;;;;;;10.95;4.07;;;;;;;;;;5054613;28;20025;-56
2020/12/10 12:52:58;;;;;;;9.48;3.60;;;;;;;;;;5055141;28;20461;-57
2020/12/10 12:55:25;;;;;;;13.23;4.63;;;;;;;;;;5053162;28;20025;-57
2020/12/10 12:57:51;;;;;;;13.07;6.05;;;;;;;;;;5054635;28;20049;-57
2020/12/10 13:00:17;;;;;;;9.27;3.78;;;;;;;;;;5054413;28;20483;-56
2020/12/10 13:02:43;;;;;;;10.95;3.75;;;;;;;;;;5054206;28;20052;-57
2020/12/10 13:05:14;;;;;;;9.98;4.55;;;;;;;;;;5068919;28;20118;-57
2020/12/10 13:07:40;;;;;;;11.85;3.90;;;;;;;;;;5054103;28;20142;-57
2020/12/10 13:10:06;;;;;;;13.32;4.07;;;;;;;;;;5053106;28;20036;-56
2020/12/10 13:12:32;;;;;;;12.05;4.90;;;;;;;;;;5053766;28;20033;-57
2020/12/10 13:15:14;;;;;;;8.55;3.78;;;;;;;;;;5054313;28;20069;-57
2020/12/10 13:17:41;;;;;;;15.73;5.93;;;;;;;;;;5052669;28;20358;-57
2020/12/10 13:20:08;;;;;;;11.82;4.80;;;;;;;;;;5054081;28;20029;-59
2020/12/10 13:22:34;;;;;;;14.23;5.30;;;;;;;;;;5052814;28;20070;-57
2020/12/10 13:25:01;;;;;;;21.50;7.38;;;;;;;;;;5053163;28;20029;-59
2020/12/10 13:27:27;;;;;;;21.88;7.95;;;;;;;;;;5053536;28;20033;-56
2020/12/10 13:29:53;;;;;;;23.40;10.65;;;;;;;;;;5052379;28;20019;-56
2020/12/10 13:32:39;;;;;;;25.27;8.85;;;;;;;;;;5052446;28;20465;-56
2020/12/10 13:35:05;;;;;;;35.83;13.80;;;;;;;;;;5053468;28;20045;-56
2020/12/10 13:37:41;;;;;;;40.60;15.10;;;;;;;;;;5052502;28;20483;-57
2020/12/10 13:40:12;;;;;;;34.90;10.18;;;;;;;;;;5053231;28;20536;-56
2020/12/10 13:42:38;;;;;;;23.45;7.20;;;;;;;;;;5053467;28;20029;-56
2020/12/10 13:45:05;;;;;;;24.48;6.47;;;;;;;;;;5052244;28;20116;-55
2020/12/10 13:47:31;;;;;;;18.98;5.22;;;;;;;;;;5053482;28;20020;-55
2020/12/10 13:49:58;;;;;;;19.80;5.25;;;;;;;;;;5053348;28;20028;-55
2020/12/10 13:52:25;;;;;;;12.48;4.40;;;;;;;;;;5053125;28;20527;-57
2020/12/10 13:54:52;;;;;;;13.32;7.68;;;;;;;;;;5052037;28;20033;-57
2020/12/10 13:57:18;;;;;;;11.77;5.00;;;;;;;;;;5053434;28;20009;-57
2020/12/10 13:59:44;;;;;;;12.88;6.53;;;;;;;;;;5051952;28;20102;-56
2020/12/10 14:02:10;;;;;;;11.00;6.05;;;;;;;;;;5053185;28;20110;-58
2020/12/10 14:04:36;;;;;;;13.00;6.38;;;;;;;;;;5053041;28;20029;-56
2020/12/10 14:07:22;;;;;;;11.50;5.60;;;;;;;;;;5053113;28;20107;-58
2020/12/10 14:09:48;;;;;;;11.57;5.20;;;;;;;;;;5053019;28;20350;-57
2020/12/10 14:12:14;;;;;;;8.00;3.63;;;;;;;;;;5051648;28;20028;-57
2020/12/10 14:14:40;;;;;;;9.32;3.63;;;;;;;;;;5052937;28;20082;-58
2020/12/10 14:17:07;;;;;;;7.68;4.18;;;;;;;;;;5051722;28;20529;-58
2020/12/10 14:19:33;;;;;;;8.77;3.60;;;;;;;;;;5051322;28;20436;-59
2020/12/10 14:21:59;;;;;;;11.05;4.68;;;;;;;;;;5053014;28;20519;-57
2020/12/10 14:24:26;;;;;;;10.15;3.60;;;;;;;;;;5052779;28;20083;-57
2020/12/10 14:27:11;;;;;;;6.30;3.53;;;;;;;;;;5052777;28;20428;-57
2020/12/10 14:29:57;;;;;;;6.50;3.10;;;;;;;;;;5052797;28;20044;-55
2020/12/10 14:32:23;;;;;;;7.60;3.13;;;;;;;;;;5052857;28;20033;-57
2020/12/10 14:34:50;;;;;;;14.80;4.90;;;;;;;;;;5052830;28;20462;-57
2020/12/10 14:37:17;;;;;;;8.43;3.08;;;;;;;;;;5051123;28;20029;-56
2020/12/10 14:39:43;;;;;;;8.10;3.85;;;;;;;;;;5052607;28;20040;-56
2020/12/10 14:42:09;;;;;;;6.03;3.35;;;;;;;;;;5052521;28;20031;-57
2020/12/10 14:44:47;;;;;;;12.15;3.63;;;;;;;;;;5052554;28;20416;-57
2020/12/10 14:47:17;;;;;;;7.05;2.78;;;;;;;;;;5052414;28;20028;-56
2020/12/10 14:49:43;;;;;;;10.60;2.95;;;;;;;;;;5052482;28;20552;-59
2020/12/10 14:52:10;;;;;;;4.95;2.10;;;;;;;;;;5052344;28;20029;-56